Streator East, Illinois
Current Conditions -  °F | °C
As of 8:55 PM on Sunday 23 Nov 2014 (Local Time) from KPNT Reporting Station
Light Rain Light Rain  
Wind Chill: 50°   Ceiling: 400
Heat Index: 50°   Visibility: 0.75mi
Dew Point: 50°   Wind: 0mph
Humidity: 100%   Direction: NA
Pressure: 29.21"   Gusts: NA
Location:  41.1182°N, 88.8294°W
Report Text: KPNT 240255Z AUTO 00000KT 3/4SM -RA OVC004 10/10 A2921 RMK AO2 P0006 60023 T01000100
Loading
Personal Weather Stations






























Interactive Weather Map New forecast layout! Learn more

10-Day Weather Forecast

Advertisements
Track Severe Weather on mobile